Kurdo, Arkansas
Current Conditions -  °F | °C
As of 11:15 AM on Sunday 23 Nov 2014 (Local Time) from KRNV Reporting Station
Light Rain Light Rain  
Wind Chill: 60°   Ceiling: 2500
Heat Index: 60°   Visibility: 5mi
Dew Point: 60°   Wind: 9mph
Humidity: 100%   Direction: 120°ESE
Pressure: 29.48"   Gusts: NA
Location:  33.8911°N, 91.2569°W
Report Text: KRNV 231715Z AUTO 12008KT 5SM -RA SCT009 BKN025 OVC044 16/16 A2948 RMK AO2 P0007 T01560156
Loading
Personal Weather Stations






























Interactive Weather Map New forecast layout! Learn more

10-Day Weather Forecast

Advertisements
Track Severe Weather on mobile